Time;durP1;ratioP1;P1;durP2;ratioP2;P2;SDS_P1;SDS_P2;PMS_P1;PMS_P2;Temp;Humidity;BMP_temperature;BMP_pressure;BME280_temperature;BME280_humidity;BME280_pressure;Samples;Min_cycle;Max_cycle;Signal;HPM_P1;HPM_P2
2022/11/18 00:01:30;;;;;;;8.18;3.70;;;7.70;99.90;;;;;;5090388;28;20488;-74
2022/11/18 00:03:56;;;;;;;8.55;3.42;;;7.70;99.90;;;;;;5092698;28;20020;-73
2022/11/18 00:06:24;;;;;;;6.45;2.95;;;7.80;99.90;;;;;;5093831;28;20036;-74
2022/11/18 00:08:50;;;;;;;6.35;2.97;;;7.80;99.90;;;;;;5092579;28;20080;-74
2022/11/18 00:14:19;;;;;;;8.02;3.67;;;7.90;99.90;;;;;;5093419;28;20070;-74
2022/11/18 00:16:46;;;;;;;8.80;3.80;;;8.00;99.90;;;;;;5092560;28;20067;-74
2022/11/18 00:19:12;;;;;;;8.35;4.38;;;8.10;99.90;;;;;;5092935;28;20141;-75
2022/11/18 00:21:37;;;;;;;6.75;3.00;;;8.10;99.90;;;;;;5092744;28;20042;-74
2022/11/18 00:24:03;;;;;;;9.32;4.38;;;8.10;99.90;;;;;;5090943;28;20116;-73
2022/11/18 00:26:29;;;;;;;10.25;3.58;;;8.20;99.90;;;;;;5092665;28;20032;-71
2022/11/18 00:28:54;;;;;;;9.23;3.00;;;8.20;99.90;;;;;;5092812;28;20127;-75
2022/11/18 00:31:20;;;;;;;8.80;3.05;;;8.20;99.90;;;;;;5092387;28;20058;-71
2022/11/18 00:33:46;;;;;;;5.90;2.50;;;8.20;99.90;;;;;;5093139;28;20088;-74
2022/11/18 00:36:12;;;;;;;6.47;2.65;;;8.30;99.90;;;;;;5088666;28;20040;-70
2022/11/18 00:38:38;;;;;;;5.13;2.70;;;8.20;99.90;;;;;;5095043;28;20046;-73
2022/11/18 00:41:10;;;;;;;6.38;2.78;;;8.20;99.90;;;;;;5098499;28;20093;-73
2022/11/18 00:43:36;;;;;;;4.70;2.40;;;8.20;99.90;;;;;;5088374;28;20024;-73
2022/11/18 00:46:03;;;;;;;4.53;2.55;;;8.20;99.90;;;;;;5102028;28;20036;-73
2022/11/18 00:48:29;;;;;;;7.20;3.42;;;8.20;99.90;;;;;;5089688;28;20572;-74
2022/11/18 00:50:58;;;;;;;6.25;3.20;;;8.10;99.90;;;;;;5086854;28;20103;-73
2022/11/18 00:53:25;;;;;;;4.38;2.45;;;8.10;99.90;;;;;;5072794;28;20027;-74
2022/11/18 00:55:51;;;;;;;4.53;2.60;;;8.10;99.90;;;;;;5071605;28;20044;-74
2022/11/18 00:58:18;;;;;;;3.78;2.17;;;8.00;99.90;;;;;;5075713;28;20025;-75
2022/11/18 01:00:47;;;;;;;4.40;2.30;;;8.00;99.90;;;;;;5082290;28;20487;-72
2022/11/18 01:03:13;;;;;;;3.40;2.10;;;8.00;99.90;;;;;;5078775;28;20031;-73
2022/11/18 01:05:39;;;;;;;6.93;2.13;;;8.00;99.90;;;;;;5073840;28;20024;-74
2022/11/18 01:08:06;;;;;;;4.13;2.00;;;7.90;99.90;;;;;;5076929;28;20032;-72
2022/11/18 01:10:33;;;;;;;3.67;1.98;;;7.90;99.90;;;;;;5090381;28;20024;-74
2022/11/18 01:15:50;;;;;;;4.05;2.15;;;7.90;99.90;;;;;;5087878;28;20063;-72
2022/11/18 01:18:18;;;;;;;3.30;2.00;;;7.80;99.90;;;;;;5091759;28;20027;-74
2022/11/18 01:20:45;;;;;;;5.20;2.10;;;7.80;99.90;;;;;;5090989;28;20020;-73
2022/11/18 01:23:11;;;;;;;5.05;2.42;;;7.80;99.90;;;;;;5091484;28;20020;-74
2022/11/18 01:25:42;;;;;;;4.38;1.73;;;7.80;99.90;;;;;;5090034;28;20047;-74
2022/11/18 01:28:08;;;;;;;6.07;2.38;;;7.80;99.90;;;;;;5091578;28;20149;-74
2022/11/18 01:30:34;;;;;;;5.80;2.70;;;7.80;99.90;;;;;;5082322;28;20028;-74
2022/11/18 01:33:01;;;;;;;5.60;2.53;;;7.80;99.90;;;;;;5069635;28;20033;-75
2022/11/18 01:35:27;;;;;;;4.97;2.47;;;7.80;99.90;;;;;;5083412;28;20484;-74
2022/11/18 01:37:52;;;;;;;5.32;2.10;;;7.80;99.90;;;;;;5090230;28;20027;-74
2022/11/18 01:40:18;;;;;;;4.00;2.08;;;7.80;99.90;;;;;;5089858;28;20444;-73
2022/11/18 01:42:44;;;;;;;4.90;2.20;;;7.80;99.90;;;;;;5073632;28;20036;-73
2022/11/18 01:45:30;;;;;;;5.50;2.78;;;7.80;99.90;;;;;;5091397;28;20024;-73
2022/11/18 01:48:00;;;;;;;3.80;2.15;;;7.80;99.90;;;;;;5079568;28;20024;-72
2022/11/18 01:50:26;;;;;;;3.47;1.83;;;7.70;99.90;;;;;;5077505;28;20090;-73
2022/11/18 01:52:57;;;;;;;4.18;2.20;;;7.80;99.90;;;;;;5081124;28;20044;-74
2022/11/18 01:55:25;;;;;;;3.67;2.20;;;7.80;99.90;;;;;;5084350;28;20119;-72
2022/11/18 01:57:58;;;;;;;5.60;2.55;;;7.80;99.90;;;;;;5092663;28;20077;-74
2022/11/18 02:00:24;;;;;;;4.55;2.20;;;7.90;99.90;;;;;;5081377;28;20453;-73
2022/11/18 02:02:50;;;;;;;4.47;2.00;;;7.90;99.90;;;;;;5093256;28;20074;-75
2022/11/18 02:05:16;;;;;;;4.25;2.50;;;7.90;99.90;;;;;;5081475;28;20688;-74
2022/11/18 02:07:42;;;;;;;3.58;2.00;;;7.90;99.90;;;;;;5091836;28;20031;-74
2022/11/18 02:10:15;;;;;;;6.80;2.40;;;7.90;99.90;;;;;;5089280;28;20028;-74
2022/11/18 02:12:41;;;;;;;3.42;2.03;;;7.90;99.90;;;;;;5094836;28;20105;-75
2022/11/18 02:15:07;;;;;;;4.28;2.22;;;7.90;99.90;;;;;;5079572;28;20457;-75
2022/11/18 02:17:54;;;;;;;6.55;2.90;;;7.90;99.90;;;;;;5107339;27;20020;-74
2022/11/18 02:20:32;;;;;;;4.25;2.35;;;7.90;99.90;;;;;;5080518;28;20016;-74
2022/11/18 02:23:17;;;;;;;4.00;2.03;;;8.00;99.90;;;;;;5099491;28;20495;-74
2022/11/18 02:25:51;;;;;;;4.18;2.15;;;7.90;99.90;;;;;;5084155;28;20093;-74
2022/11/18 02:28:37;;;;;;;5.75;2.88;;;8.00;99.90;;;;;;5085838;28;20044;-72
2022/11/18 02:31:30;;;;;;;3.38;2.25;;;8.00;99.90;;;;;;5073762;28;20013;-75
2022/11/18 02:34:27;;;;;;;8.10;2.10;;;8.00;99.90;;;;;;5074423;28;20040;-74
2022/11/18 02:37:03;;;;;;;4.60;2.38;;;8.00;99.90;;;;;;5090239;28;20039;-74
2022/11/18 02:39:39;;;;;;;6.03;2.50;;;7.90;99.90;;;;;;5086954;28;20434;-73
2022/11/18 02:42:10;;;;;;;6.82;2.50;;;7.90;99.90;;;;;;5072908;28;20111;-74
2022/11/18 02:44:41;;;;;;;5.03;2.45;;;7.90;99.90;;;;;;5085143;28;20088;-72
2022/11/18 02:47:08;;;;;;;;;;;8.00;99.90;;;;;;5093781;28;20081;-73
2022/11/18 02:49:47;;;;;;;2.78;1.98;;;8.00;99.90;;;;;;5091757;28;19955;-73
2022/11/18 02:52:13;;;;;;;3.15;2.00;;;8.00;99.90;;;;;;5093341;28;20032;-75
2022/11/18 02:54:42;;;;;;;4.72;2.20;;;8.00;99.90;;;;;;5093901;28;20151;-74
2022/11/18 02:57:08;;;;;;;4.88;2.10;;;8.10;99.90;;;;;;5092041;28;20028;-71
2022/11/18 02:59:34;;;;;;;4.45;2.58;;;8.10;99.90;;;;;;5085628;28;20023;-74
2022/11/18 03:02:00;;;;;;;3.63;2.05;;;8.00;99.90;;;;;;5074224;28;20028;-73
2022/11/18 03:04:26;;;;;;;5.15;2.60;;;8.00;99.90;;;;;;5088747;28;20082;-74
2022/11/18 03:07:11;;;;;;;3.30;2.17;;;8.00;99.90;;;;;;5091526;28;20028;-73
2022/11/18 03:09:40;;;;;;;8.30;2.63;;;7.90;99.90;;;;;;5091892;28;20534;-75
2022/11/18 03:12:36;;;;;;;5.47;2.17;;;7.90;99.90;;;;;;5091031;28;20385;-74
2022/11/18 03:15:05;;;;;;;7.45;2.65;;;7.80;99.90;;;;;;5079702;28;20059;-73
2022/11/18 03:18:18;;;;;;;3.35;2.30;;;7.80;99.90;;;;;;5073707;28;20028;-70
2022/11/18 03:20:54;;;;;;;5.72;2.22;;;7.80;99.90;;;;;;5056756;28;20131;-72
2022/11/18 03:23:33;;;;;;;6.15;2.42;;;7.90;99.90;;;;;;5073033;28;20421;-72
2022/11/18 03:26:12;;;;;;;3.97;2.30;;;8.00;99.90;;;;;;5077807;28;20028;-72
2022/11/18 03:28:54;;;;;;;5.20;2.40;;;8.00;99.90;;;;;;5088883;28;20404;-74
2022/11/18 03:31:26;;;;;;;3.10;2.35;;;8.10;99.90;;;;;;5077781;28;20123;-75
2022/11/18 03:34:08;;;;;;;7.10;2.38;;;8.10;99.90;;;;;;5070795;28;20471;-74
2022/11/18 03:36:38;;;;;;;4.43;2.53;;;8.20;99.90;;;;;;5109419;27;20040;-74
2022/11/18 03:39:06;;;;;;;4.97;2.45;;;8.20;99.90;;;;;;5077840;28;20038;-74
2022/11/18 03:41:37;;;;;;;6.45;2.97;;;8.20;99.90;;;;;;5091210;28;20032;-73
2022/11/18 03:44:11;;;;;;;4.15;2.40;;;8.20;99.90;;;;;;5091285;28;20070;-74
2022/11/18 03:46:54;;;;;;;4.53;2.42;;;8.20;99.90;;;;;;5081262;28;20024;-74
2022/11/18 03:49:36;;;;;;;6.88;2.65;;;8.20;99.90;;;;;;5085659;28;20032;-75
2022/11/18 03:52:12;;;;;;;6.38;2.65;;;8.20;99.90;;;;;;5079531;28;20031;-73
2022/11/18 03:54:40;;;;;;;5.30;2.80;;;8.20;99.90;;;;;;5087923;28;20024;-75
2022/11/18 03:57:15;;;;;;;4.80;2.55;;;8.20;99.90;;;;;;5091600;28;20036;-74
2022/11/18 03:59:50;;;;;;;5.93;2.83;;;8.20;99.90;;;;;;5084517;28;20020;-74
2022/11/18 04:02:19;;;;;;;5.65;2.50;;;8.20;99.90;;;;;;5070694;28;20086;-75
2022/11/18 04:04:48;;;;;;;6.53;3.10;;;8.20;99.90;;;;;;5117141;27;20086;-75
2022/11/18 04:07:22;;;;;;;3.63;2.35;;;8.30;99.90;;;;;;5087855;28;20024;-74
2022/11/18 04:09:57;;;;;;;6.50;2.40;;;8.30;99.90;;;;;;5086619;28;20099;-73
2022/11/18 04:12:26;;;;;;;7.35;2.58;;;8.30;99.90;;;;;;5079902;28;20020;-74
2022/11/18 04:14:54;;;;;;;6.18;2.83;;;8.30;99.90;;;;;;5084810;28;20036;-74
2022/11/18 04:17:22;;;;;;;4.75;2.50;;;8.40;99.90;;;;;;5072952;28;20043;-75
2022/11/18 04:19:47;;;;;;;4.30;2.50;;;8.40;99.90;;;;;;5070531;28;20020;-72
2022/11/18 04:22:14;;;;;;;3.70;2.40;;;8.40;99.90;;;;;;5083658;28;20538;-75
2022/11/18 04:24:39;;;;;;;6.38;2.60;;;8.50;99.90;;;;;;5079285;28;20483;-75
2022/11/18 04:27:06;;;;;;;5.32;2.60;;;8.50;99.90;;;;;;5076575;28;20028;-74
2022/11/18 04:29:32;;;;;;;4.82;2.67;;;8.50;99.90;;;;;;5082679;28;20106;-74
2022/11/18 04:31:59;;;;;;;6.15;2.53;;;8.60;99.90;;;;;;5074083;28;20053;-74
2022/11/18 04:34:25;;;;;;;5.90;2.35;;;8.60;99.90;;;;;;5086836;28;20367;-75
2022/11/18 04:36:51;;;;;;;8.52;2.55;;;8.60;99.90;;;;;;5089752;28;20118;-74
2022/11/18 04:39:19;;;;;;;6.05;2.53;;;8.60;99.90;;;;;;5079040;28;20019;-74
2022/11/18 04:41:54;;;;;;;4.28;2.20;;;8.60;99.90;;;;;;5088579;28;20032;-73
2022/11/18 04:44:30;;;;;;;5.30;2.40;;;8.60;99.90;;;;;;5077617;28;20024;-74
2022/11/18 04:46:58;;;;;;;2.97;1.92;;;8.60;99.90;;;;;;5079241;28;20345;-73
2022/11/18 04:49:24;;;;;;;7.45;2.50;;;8.60;99.90;;;;;;5079372;28;20034;-73
2022/11/18 04:51:50;;;;;;;4.43;2.53;;;8.60;99.90;;;;;;5090649;28;20379;-72
2022/11/18 04:54:17;;;;;;;4.10;2.40;;;8.60;99.90;;;;;;5087223;28;20130;-72
2022/11/18 04:56:43;;;;;;;4.82;2.60;;;8.50;99.90;;;;;;5090273;28;20039;-74
2022/11/18 04:59:09;;;;;;;4.70;2.58;;;8.60;99.90;;;;;;5090056;28;20020;-74
2022/11/18 05:01:35;;;;;;;4.93;2.72;;;8.60;99.90;;;;;;5091585;28;20028;-72
2022/11/18 05:04:02;;;;;;;4.68;2.63;;;8.60;99.90;;;;;;5074362;28;20385;-69
2022/11/18 05:06:28;;;;;;;5.55;2.15;;;8.60;99.90;;;;;;5077231;28;20028;-70
2022/11/18 05:08:56;;;;;;;4.03;1.88;;;8.60;99.90;;;;;;5090486;28;20016;-70
2022/11/18 05:14:06;;;;;;;4.43;2.22;;;8.70;99.90;;;;;;5072136;28;20047;-69
2022/11/18 05:16:31;;;;;;;7.57;2.63;;;8.70;99.90;;;;;;5071489;28;20033;-73
2022/11/18 05:18:57;;;;;;;5.05;2.38;;;8.70;99.90;;;;;;5071587;28;20028;-70
2022/11/18 05:21:22;;;;;;;6.88;2.50;;;8.70;99.90;;;;;;5071290;28;20510;-70
2022/11/18 05:23:48;;;;;;;4.28;2.08;;;8.70;99.90;;;;;;5081521;28;20325;-71
2022/11/18 05:26:13;;;;;;;4.70;2.03;;;8.80;99.90;;;;;;5082610;28;20081;-70
2022/11/18 05:28:39;;;;;;;3.70;2.13;;;8.80;99.90;;;;;;5087067;28;20036;-70
2022/11/18 05:31:11;;;;;;;7.65;2.63;;;8.80;99.90;;;;;;5085908;28;20023;-69
2022/11/18 05:33:37;;;;;;;5.75;2.67;;;8.80;99.90;;;;;;5085374;28;20109;-69
2022/11/18 05:36:05;;;;;;;5.03;2.55;;;8.80;99.90;;;;;;5089319;28;20501;-69
2022/11/18 05:38:32;;;;;;;6.57;3.10;;;8.80;99.90;;;;;;5091579;28;20491;-69
2022/11/18 05:40:57;;;;;;;5.95;2.65;;;8.80;99.90;;;;;;5091015;28;20468;-69
2022/11/18 05:43:23;;;;;;;5.72;2.60;;;8.80;99.90;;;;;;5090240;28;20012;-69
2022/11/18 05:45:50;;;;;;;7.40;3.13;;;8.80;99.90;;;;;;5089402;28;20023;-69
2022/11/18 05:48:17;;;;;;;9.25;3.83;;;8.80;99.90;;;;;;5087259;28;20036;-70
2022/11/18 05:50:49;;;;;;;6.18;3.33;;;8.80;99.90;;;;;;5088833;28;20030;-69
2022/11/18 05:53:16;;;;;;;6.47;3.20;;;8.90;99.90;;;;;;5090855;28;20077;-70
2022/11/18 05:55:53;;;;;;;6.50;3.13;;;8.90;99.90;;;;;;5090866;28;20059;-70
2022/11/18 05:58:18;;;;;;;6.80;2.75;;;8.90;99.90;;;;;;5091278;28;20024;-70
2022/11/18 06:00:46;;;;;;;4.40;2.58;;;9.00;99.90;;;;;;5091653;28;20028;-70
2022/11/18 06:03:23;;;;;;;10.35;3.17;;;8.90;99.90;;;;;;5105442;28;20031;-70
2022/11/18 06:05:51;;;;;;;7.82;2.80;;;9.00;99.90;;;;;;5085112;28;20025;-70
2022/11/18 06:08:18;;;;;;;6.68;3.45;;;9.00;99.90;;;;;;5090257;28;20050;-69
2022/11/18 06:10:45;;;;;;;8.82;3.58;;;9.00;99.90;;;;;;5089755;28;20108;-69
2022/11/18 06:13:32;;;;;;;6.57;3.45;;;9.00;99.90;;;;;;5090887;28;20020;-69
2022/11/18 06:15:58;;;;;;;7.68;3.83;;;9.00;99.90;;;;;;5089453;28;20085;-69
2022/11/18 06:18:27;;;;;;;7.15;4.00;;;9.00;99.90;;;;;;5087963;28;20028;-70
2022/11/18 06:20:58;;;;;;;7.38;3.25;;;9.00;99.90;;;;;;5087456;28;20041;-70
2022/11/18 06:23:26;;;;;;;6.22;3.05;;;9.00;99.90;;;;;;5090939;28;20028;-70
2022/11/18 06:25:52;;;;;;;8.70;3.67;;;9.00;99.90;;;;;;5090671;28;20025;-69
2022/11/18 06:28:18;;;;;;;5.57;2.60;;;9.00;99.90;;;;;;5090434;28;20065;-70
2022/11/18 06:30:44;;;;;;;6.00;3.22;;;9.00;99.90;;;;;;5091290;28;20111;-70
2022/11/18 06:33:09;;;;;;;5.72;2.75;;;9.00;99.90;;;;;;5090955;28;20516;-70
2022/11/18 06:35:35;;;;;;;6.85;3.88;;;9.00;99.90;;;;;;5089185;28;20435;-70
2022/11/18 06:38:01;;;;;;;8.27;3.08;;;8.90;99.90;;;;;;5090614;28;20357;-70
2022/11/18 06:40:27;;;;;;;6.13;3.05;;;8.90;99.90;;;;;;5090935;28;20054;-70
2022/11/18 06:45:36;;;;;;;6.28;3.55;;;8.90;99.90;;;;;;5094963;28;20561;-70
2022/11/18 06:48:03;;;;;;;5.93;3.40;;;8.80;99.90;;;;;;5094556;28;20199;-70
2022/11/18 06:50:29;;;;;;;7.90;3.85;;;8.80;99.90;;;;;;5091519;28;20020;-70
2022/11/18 06:52:55;;;;;;;8.55;4.03;;;8.70;99.90;;;;;;5096282;28;20053;-70
2022/11/18 06:55:20;;;;;;;6.07;3.60;;;8.70;99.90;;;;;;5095310;28;20027;-70
2022/11/18 06:57:46;;;;;;;7.93;3.55;;;8.60;99.90;;;;;;5094063;28;20035;-70
2022/11/18 07:00:12;;;;;;;7.80;3.53;;;8.60;99.90;;;;;;5094801;28;20020;-70
2022/11/18 07:02:38;;;;;;;7.15;3.75;;;8.60;99.90;;;;;;5095862;28;20020;-71
2022/11/18 07:05:05;;;;;;;5.80;3.22;;;8.60;99.90;;;;;;5095580;28;20365;-70
2022/11/18 07:07:33;;;;;;;10.50;4.10;;;8.60;99.90;;;;;;5093678;28;20464;-70
2022/11/18 07:09:58;;;;;;;7.97;4.53;;;8.60;99.90;;;;;;5094020;28;20032;-70
2022/11/18 07:12:24;;;;;;;11.18;4.13;;;8.70;99.90;;;;;;5085212;28;20043;-70
2022/11/18 07:14:49;;;;;;;8.00;3.97;;;8.70;99.90;;;;;;5084445;28;20020;-70
2022/11/18 07:17:15;;;;;;;13.38;4.32;;;8.80;99.90;;;;;;5090506;28;20060;-70
2022/11/18 07:19:41;;;;;;;9.75;4.13;;;8.80;99.90;;;;;;5094282;28;20027;-71
2022/11/18 07:22:06;;;;;;;8.80;3.67;;;8.80;99.90;;;;;;5092514;28;20036;-71
2022/11/18 07:24:32;;;;;;;8.40;4.20;;;8.80;99.90;;;;;;5093516;28;20028;-71
2022/11/18 07:26:58;;;;;;;8.63;4.63;;;8.90;99.90;;;;;;5094143;28;20437;-70
2022/11/18 07:29:24;;;;;;;9.75;4.40;;;8.90;99.90;;;;;;5092194;28;20044;-69
2022/11/18 07:31:49;;;;;;;8.10;3.70;;;8.90;99.90;;;;;;5091519;28;20051;-69
2022/11/18 07:34:15;;;;;;;9.13;3.90;;;8.90;99.90;;;;;;5093975;28;20024;-68
2022/11/18 07:36:41;;;;;;;6.20;3.50;;;9.00;99.90;;;;;;5093965;28;20043;-68
2022/11/18 07:39:06;;;;;;;6.57;3.47;;;9.00;99.90;;;;;;5091364;28;20054;-70
2022/11/18 07:41:33;;;;;;;5.53;3.70;;;9.00;99.90;;;;;;5093632;28;20024;-69
2022/11/18 07:44:01;;;;;;;6.63;3.30;;;9.00;99.90;;;;;;5092870;28;20521;-69
2022/11/18 07:46:35;;;;;;;6.43;3.85;;;9.10;99.90;;;;;;5093309;28;20024;-70
2022/11/18 07:49:03;;;;;;;10.60;4.30;;;9.00;99.90;;;;;;5093919;28;20031;-69
2022/11/18 07:51:31;;;;;;;8.60;3.53;;;9.00;99.90;;;;;;5090521;28;20020;-68
2022/11/18 07:53:57;;;;;;;8.70;4.03;;;9.10;99.90;;;;;;5092657;28;20057;-69
2022/11/18 07:56:23;;;;;;;8.38;4.20;;;9.10;99.90;;;;;;5093764;28;20480;-68
2022/11/18 07:58:55;;;;;;;8.30;4.00;;;9.10;99.90;;;;;;5092204;28;20031;-67
2022/11/18 08:01:23;;;;;;;11.52;5.35;;;9.20;99.90;;;;;;5081320;28;20032;-69
2022/11/18 08:03:49;;;;;;;7.47;4.55;;;9.20;99.90;;;;;;5074704;28;20752;-69
2022/11/18 08:06:17;;;;;;;7.88;4.10;;;9.20;99.90;;;;;;5087555;28;20024;-67
2022/11/18 08:08:44;;;;;;;9.77;5.65;;;9.20;99.90;;;;;;5092470;28;20024;-69
2022/11/18 08:11:12;;;;;;;13.25;6.75;;;9.20;99.90;;;;;;5092392;28;20441;-68
2022/11/18 08:13:38;;;;;;;17.15;9.05;;;9.20;99.90;;;;;;5089891;28;20366;-69
2022/11/18 08:16:10;;;;;;;11.00;6.70;;;9.20;99.90;;;;;;5083365;28;20059;-70
2022/11/18 08:18:35;;;;;;;16.23;7.63;;;9.10;99.90;;;;;;5074645;28;20059;-69
2022/11/18 08:21:04;;;;;;;15.73;7.88;;;9.10;99.90;;;;;;5072244;28;20059;-68
2022/11/18 08:23:31;;;;;;;13.90;7.32;;;9.00;99.90;;;;;;5079014;28;20038;-69
2022/11/18 08:26:13;;;;;;;12.10;6.90;;;9.00;99.90;;;;;;5101493;28;20403;-70
2022/11/18 08:28:41;;;;;;;16.42;9.00;;;8.90;99.90;;;;;;5093417;28;20075;-68
2022/11/18 08:31:18;;;;;;;15.65;9.40;;;8.90;99.90;;;;;;5089689;28;20035;-68
2022/11/18 08:33:44;;;;;;;19.05;8.80;;;8.80;99.90;;;;;;5091781;28;20468;-68
2022/11/18 08:36:16;;;;;;;19.08;9.25;;;8.80;99.90;;;;;;5091151;28;20044;-68
2022/11/18 08:38:42;;;;;;;17.58;9.05;;;8.70;99.90;;;;;;5090311;28;20035;-67
2022/11/18 08:41:13;;;;;;;13.63;6.18;;;8.70;99.90;;;;;;5089876;28;20027;-68
2022/11/18 08:43:38;;;;;;;11.88;6.68;;;8.70;99.90;;;;;;5090843;28;20385;-68
2022/11/18 08:46:04;;;;;;;14.82;7.25;;;8.70;99.90;;;;;;5088670;28;20501;-67
2022/11/18 08:48:30;;;;;;;12.07;6.88;;;8.70;99.90;;;;;;5087902;28;20315;-67
2022/11/18 08:50:57;;;;;;;13.55;6.95;;;8.70;99.90;;;;;;5088532;28;20024;-67
2022/11/18 08:53:22;;;;;;;16.17;6.57;;;8.70;99.90;;;;;;5089501;28;20507;-67
2022/11/18 08:55:57;;;;;;;12.02;7.40;;;8.70;99.90;;;;;;5089079;28;20181;-67
2022/11/18 08:58:24;;;;;;;10.20;5.78;;;8.70;99.90;;;;;;5089955;28;20191;-67
2022/11/18 09:00:50;;;;;;;9.20;6.05;;;8.80;99.90;;;;;;5089555;28;20057;-67
2022/11/18 09:03:15;;;;;;;11.60;5.25;;;8.80;99.90;;;;;;5089468;28;20027;-67
2022/11/18 09:05:41;;;;;;;10.18;6.10;;;8.80;99.90;;;;;;5089602;28;20397;-67
2022/11/18 09:08:06;;;;;;;10.20;5.60;;;8.80;99.90;;;;;;5091615;28;20023;-68
2022/11/18 09:10:33;;;;;;;14.05;7.10;;;8.80;99.90;;;;;;5090920;28;20038;-66
2022/11/18 09:12:59;;;;;;;10.55;6.65;;;8.80;99.90;;;;;;5088423;28;20031;-67
2022/11/18 09:15:25;;;;;;;10.20;5.68;;;8.80;99.90;;;;;;5094784;28;20535;-67
2022/11/18 09:17:51;;;;;;;12.43;5.93;;;8.80;99.90;;;;;;5088804;28;20020;-68
2022/11/18 09:20:18;;;;;;;12.32;5.82;;;8.80;99.90;;;;;;5087359;28;20101;-68
2022/11/18 09:22:43;;;;;;;8.82;5.10;;;8.90;99.90;;;;;;5070618;28;20028;-68
2022/11/18 09:25:09;;;;;;;10.68;5.60;;;8.80;99.90;;;;;;5075997;28;20086;-68
2022/11/18 09:27:34;;;;;;;10.23;5.60;;;8.80;99.90;;;;;;5081484;28;20029;-68
2022/11/18 09:30:00;;;;;;;9.77;5.88;;;8.90;99.90;;;;;;5069303;28;20530;-68
2022/11/18 09:32:26;;;;;;;11.13;5.75;;;8.90;99.90;;;;;;5079551;28;20028;-68
2022/11/18 09:34:51;;;;;;;9.20;6.38;;;8.90;99.90;;;;;;5089986;28;20026;-68
2022/11/18 09:37:17;;;;;;;10.60;5.60;;;8.90;99.90;;;;;;5074562;28;20032;-68
2022/11/18 09:39:42;;;;;;;7.38;4.88;;;8.90;99.90;;;;;;5084575;28;20044;-68
2022/11/18 09:42:35;;;;;;;10.50;5.30;;;9.00;99.90;;;;;;5087598;28;20452;-69
2022/11/18 09:45:17;;;;;;;10.50;6.18;;;9.00;99.90;;;;;;5070062;28;20032;-68
2022/11/18 09:47:43;;;;;;;11.15;5.45;;;9.00;99.90;;;;;;5070909;28;20415;-68
2022/11/18 09:50:14;;;;;;;12.10;5.55;;;9.00;99.90;;;;;;5070413;28;20025;-67
2022/11/18 09:53:00;;;;;;;9.70;5.38;;;9.00;99.90;;;;;;5069950;28;20032;-68
2022/11/18 09:55:27;;;;;;;11.40;5.32;;;9.00;99.90;;;;;;5070036;28;20040;-67
2022/11/18 09:57:57;;;;;;;9.02;4.70;;;9.00;99.90;;;;;;5069476;28;20052;-69
2022/11/18 10:00:31;;;;;;;9.75;4.82;;;9.10;99.90;;;;;;5082640;28;20038;-69
2022/11/18 10:03:00;;;;;;;9.85;5.38;;;9.10;99.90;;;;;;5090365;28;20124;-68
2022/11/18 10:05:34;;;;;;;10.02;4.95;;;9.20;99.90;;;;;;5089860;28;20051;-68
2022/11/18 10:08:22;;;;;;;8.13;4.78;;;9.20;99.90;;;;;;5074048;28;20032;-67
2022/11/18 10:11:09;;;;;;;11.02;5.55;;;9.30;99.90;;;;;;5070501;28;20103;-69
2022/11/18 10:13:57;;;;;;;9.30;5.55;;;9.30;99.90;;;;;;5068732;28;20029;-67
2022/11/18 10:16:29;;;;;;;9.73;5.18;;;9.30;99.90;;;;;;5071238;28;20043;-67
2022/11/18 10:19:15;;;;;;;8.40;4.90;;;9.40;99.90;;;;;;5081608;28;20032;-68
2022/11/18 10:22:12;;;;;;;11.07;4.88;;;9.40;99.90;;;;;;5079318;28;20032;-68
2022/11/18 10:24:57;;;;;;;8.40;4.95;;;9.50;99.90;;;;;;5091726;28;20063;-67
2022/11/18 10:27:32;;;;;;;11.20;5.43;;;9.50;99.90;;;;;;5080006;28;20471;-68
2022/11/18 10:29:59;;;;;;;11.93;5.50;;;9.60;99.90;;;;;;5093411;28;20101;-68
2022/11/18 10:32:25;;;;;;;9.70;5.90;;;9.60;99.90;;;;;;5079907;28;20052;-68
2022/11/18 10:34:51;;;;;;;7.88;5.18;;;9.60;99.90;;;;;;5074056;28;20052;-68
2022/11/18 10:37:35;;;;;;;12.63;5.85;;;9.70;99.90;;;;;;5074849;28;20115;-68
2022/11/18 10:40:03;;;;;;;10.77;5.72;;;9.80;99.90;;;;;;5074882;28;20027;-69
2022/11/18 10:42:34;;;;;;;8.68;4.82;;;9.80;99.90;;;;;;5073896;28;20020;-68
2022/11/18 10:45:20;;;;;;;9.02;4.97;;;9.90;99.90;;;;;;5074415;28;20028;-68
2022/11/18 10:48:10;;;;;;;10.55;5.70;;;10.10;99.90;;;;;;5074450;28;20063;-68
2022/11/18 10:50:43;;;;;;;9.32;5.43;;;10.20;99.90;;;;;;5074423;28;20066;-68
2022/11/18 10:53:30;;;;;;;9.80;5.90;;;10.20;99.90;;;;;;5074337;28;20103;-68
2022/11/18 10:56:01;;;;;;;10.73;6.60;;;10.20;99.90;;;;;;5063338;28;20370;-68
2022/11/18 10:58:31;;;;;;;;;;;10.20;99.90;;;;;;5074849;28;20414;-68
2022/11/18 11:01:24;;;;;;;12.38;6.10;;;10.20;99.90;;;;;;5074277;28;19991;-68
2022/11/18 11:04:00;;;;;;;10.93;5.68;;;10.20;99.90;;;;;;5063900;28;20033;-68
2022/11/18 11:06:26;;;;;;;10.02;6.35;;;10.20;99.90;;;;;;5074476;28;20086;-68
2022/11/18 11:08:55;;;;;;;9.57;6.47;;;10.20;99.90;;;;;;5072512;28;20074;-68
2022/11/18 11:11:27;;;;;;;9.52;5.30;;;10.20;99.90;;;;;;5073870;28;20426;-68
2022/11/18 11:14:13;;;;;;;8.70;5.43;;;10.20;99.90;;;;;;5074181;28;20013;-68
2022/11/18 11:16:46;;;;;;;10.10;5.43;;;10.10;99.90;;;;;;5073243;28;20041;-67
2022/11/18 11:19:16;;;;;;;10.70;5.97;;;10.00;99.90;;;;;;5073990;28;20044;-68
2022/11/18 11:21:41;;;;;;;9.63;5.30;;;10.00;99.90;;;;;;5074023;28;20073;-69
2022/11/18 11:24:11;;;;;;;10.13;5.32;;;9.90;99.90;;;;;;5073067;28;20067;-68
2022/11/18 11:27:04;;;;;;;8.02;5.07;;;9.90;99.90;;;;;;5074197;28;20025;-68
2022/11/18 11:29:42;;;;;;;9.38;4.93;;;9.90;99.90;;;;;;5072472;28;20557;-68
2022/11/18 11:32:38;;;;;;;10.45;5.65;;;10.00;99.90;;;;;;5073062;28;20472;-68
2022/11/18 11:35:18;;;;;;;9.77;5.05;;;10.00;99.90;;;;;;5073415;28;20094;-68
2022/11/18 11:37:53;;;;;;;10.30;4.60;;;10.00;99.90;;;;;;5072392;28;20029;-68
2022/11/18 11:40:49;;;;;;;11.25;6.03;;;10.00;99.90;;;;;;5075599;28;20154;-69
2022/11/18 11:43:42;;;;;;;9.18;5.60;;;10.00;99.90;;;;;;5093904;28;20384;-67
2022/11/18 11:46:16;;;;;;;10.25;5.45;;;10.00;99.90;;;;;;5076359;28;20035;-68
2022/11/18 11:49:11;;;;;;;12.68;6.95;;;10.00;99.90;;;;;;5071047;28;20454;-69
2022/11/18 11:52:00;;;;;;;9.02;5.93;;;10.00;99.90;;;;;;5081709;28;20107;-69
2022/11/18 11:54:51;;;;;;;10.52;6.07;;;10.00;99.90;;;;;;5084601;28;20028;-68
2022/11/18 11:57:46;;;;;;;11.15;6.05;;;10.10;99.90;;;;;;5080526;28;20036;-68
2022/11/18 12:00:15;;;;;;;12.50;6.78;;;10.10;99.90;;;;;;5067140;28;20032;-67
2022/11/18 12:03:18;;;;;;;10.85;6.80;;;10.10;99.90;;;;;;5082840;28;20457;-68
2022/11/18 12:05:44;;;;;;;11.20;6.28;;;10.10;99.90;;;;;;5080656;28;20032;-68
2022/11/18 12:08:19;;;;;;;9.15;6.20;;;10.10;99.90;;;;;;5084205;28;20024;-70
2022/11/18 12:11:01;;;;;;;13.15;6.40;;;10.10;99.90;;;;;;5075059;28;20074;-69
2022/11/18 12:13:57;;;;;;;12.00;6.60;;;10.10;99.90;;;;;;5091198;28;20020;-69
2022/11/18 12:16:40;;;;;;;12.13;6.65;;;10.20;99.90;;;;;;5089221;28;20093;-68
2022/11/18 12:19:17;;;;;;;9.25;6.03;;;10.20;99.90;;;;;;5090635;28;20516;-68
2022/11/18 12:21:44;;;;;;;10.13;6.38;;;10.20;99.90;;;;;;5089218;28;20008;-68
2022/11/18 12:24:32;;;;;;;10.20;5.68;;;10.20;99.90;;;;;;5091548;28;20408;-70
2022/11/18 12:27:10;;;;;;;7.13;4.30;;;10.20;99.90;;;;;;5086960;28;20028;-71
2022/11/18 12:29:51;;;;;;;11.40;5.50;;;10.20;99.90;;;;;;5091333;28;20135;-68
2022/11/18 12:32:25;;;;;;;8.50;4.88;;;10.10;99.90;;;;;;5086457;28;20047;-67
2022/11/18 12:35:21;;;;;;;9.45;5.65;;;10.10;99.90;;;;;;5088065;28;20024;-68
2022/11/18 12:37:50;;;;;;;11.40;5.70;;;10.20;99.90;;;;;;5090289;28;20077;-69
2022/11/18 12:40:40;;;;;;;12.68;5.78;;;10.40;99.90;;;;;;5088763;28;20036;-69
2022/11/18 12:43:45;;;;;;;10.93;6.00;;;10.70;99.90;;;;;;5088705;28;20392;-68
2022/11/18 12:46:38;;;;;;;8.75;6.18;;;10.90;99.90;;;;;;5068140;28;20035;-68
2022/11/18 12:49:35;;;;;;;9.88;6.18;;;11.00;99.90;;;;;;5098116;28;20027;-67
2022/11/18 12:52:04;;;;;;;11.02;6.32;;;11.10;99.90;;;;;;5033310;28;20109;-68
2022/11/18 12:54:44;;;;;;;10.07;5.82;;;11.10;99.90;;;;;;5114329;27;20055;-69
2022/11/18 12:57:13;;;;;;;10.00;6.45;;;11.10;99.90;;;;;;5090724;28;20036;-68
2022/11/18 12:59:38;;;;;;;10.50;5.45;;;11.20;99.90;;;;;;5087854;28;20099;-68
2022/11/18 13:02:10;;;;;;;10.77;6.03;;;11.20;99.90;;;;;;5087719;28;20428;-68
2022/11/18 13:04:36;;;;;;;9.25;5.55;;;11.30;99.90;;;;;;5070092;28;20038;-68
2022/11/18 13:07:05;;;;;;;10.45;5.38;;;11.20;99.90;;;;;;5081955;28;20081;-68
2022/11/18 13:09:33;;;;;;;10.20;4.97;;;11.10;99.90;;;;;;5090393;28;20032;-68
2022/11/18 13:12:02;;;;;;;11.07;4.80;;;11.10;99.90;;;;;;5089600;28;20448;-68
2022/11/18 13:20:32;;;;;;;8.40;5.05;;;11.20;99.90;;;;;;5090775;28;20059;-68
2022/11/18 13:25:46;;;;;;;8.80;5.72;;;11.40;99.90;;;;;;5089482;28;20088;-68
2022/11/18 13:28:30;;;;;;;9.75;4.93;;;11.30;99.90;;;;;;5087512;28;20503;-68
2022/11/18 13:31:22;;;;;;;9.15;5.20;;;11.40;99.90;;;;;;5069593;28;20453;-68
2022/11/18 13:33:49;;;;;;;9.40;4.97;;;11.40;99.90;;;;;;5078408;28;20111;-70
2022/11/18 13:36:23;;;;;;;7.68;4.50;;;11.40;99.90;;;;;;5089055;28;20036;-70